MMTG

Angel Albino Corzo International Airport

Tuxtla Gutiérrez, Mexico
TAF AMD MMTG 261301Z 2613/2706 00000KT 3SM BR SCT015 BKN070 FM261600 30012KT 5SM HZ SCT020 BKN200 FM262100 30010G20KT P6SM BKN025 TEMPO 2622/2702 3SM TSRA BKN015CB
Issued Valid From Valid To
Apr-26 @ 13:01 UTC
(35 minutes ago)
Apr-26 @ 13:00 UTC
(36 minutes ago)
Apr-27 @ 06:00 UTC
(in 16 hours)
Apr-26 @ 13:00 to Apr-26 @ 16:00
TAF AMD MMTG 261301Z 2613/2706 00000KT 3SM BR SCT015 BKN070
Visibility Clouds Conditions
3 miles
  • Scattered at 1,500' AGL
  • Broken at 7,000' AGL
  • Mist
From Apr-26 @ 16:00 to Apr-26 @ 21:00
FM261600 30012KT 5SM HZ SCT020 BKN200
Wind Visibility Clouds Conditions
300° at 12 knots 5 miles
  • Scattered at 2,000' AGL
  • Broken at 20,000' AGL
  • Haze
From Apr-26 @ 21:00 to Apr-27 @ 06:00
FM262100 30010G20KT P6SM BKN025
Wind Visibility Clouds
300° at 10 knots
 Gusting to 20 knots
Greater than 6 miles
  • Broken at 2,500' AGL
Temporary Apr-26 @ 22:00 to Apr-27 @ 02:00
TEMPO 2622/2702 3SM TSRA BKN015CB
Visibility Clouds Conditions
3 miles
  • Broken at 1,500' AGL
  • Thunderstorm
  • Rain
TAF AMD MMTG 261301Z 2613/2706 00000KT 3SM BR SCT015 BKN070 FM261600 30012KT 5SM HZ SCT020 BKN200 FM262100 30010G20KT P6SM BKN025 TEMPO 2622/2702 3SM TSRA BKN015CB
Issued Apr-26 @ 13:01 UTC
(35 minutes ago)
Valid From Apr-26 @ 13:00 UTC
(36 minutes ago)
Valid To Apr-27 @ 06:00 UTC
(in 16 hours)
Apr-26 @ 13:00 - Apr-26 @ 16:00
Clouds
  • Scattered at 1,500' AGL
  • Broken at 7,000' AGL
Conditions
  • Mist
From Apr-26 @ 16:00 - Apr-26 @ 21:00
Wind Visibility
300° at 12 knots 5 miles
Clouds
  • Scattered at 2,000' AGL
  • Broken at 20,000' AGL
Conditions
  • Haze
From Apr-26 @ 21:00 - Apr-27 @ 06:00
Wind Visibility
300° at 10 knots
 Gusting to 20 knots
Greater than 6 miles
Clouds
  • Broken at 2,500' AGL
Temporary Apr-26 @ 22:00 - Apr-27 @ 02:00
Clouds
  • Broken at 1,500' AGL
Conditions
  • Thunderstorm
  • Rain